sensor_id;sensor_type;location;lat;lon;timestamp;P1;durP1;ratioP1;P2;durP2;ratioP2
8538;SDS011;4307;53.868;11.680;2022-11-15T00:01:41;48.57;;;23.13;;
8538;SDS011;4307;53.868;11.680;2022-11-15T00:04:08;28.27;;;14.43;;
8538;SDS011;4307;53.868;11.680;2022-11-15T00:06:36;43.40;;;21.53;;
8538;SDS011;4307;53.868;11.680;2022-11-15T00:09:02;42.03;;;18.87;;
8538;SDS011;4307;53.868;11.680;2022-11-15T00:11:29;37.43;;;19.37;;
8538;SDS011;4307;53.868;11.680;2022-11-15T00:13:56;41.67;;;21.77;;
8538;SDS011;4307;53.868;11.680;2022-11-15T00:16:23;31.77;;;15.87;;
8538;SDS011;4307;53.868;11.680;2022-11-15T00:18:51;44.40;;;22.63;;
8538;SDS011;4307;53.868;11.680;2022-11-15T00:21:18;35.60;;;20.30;;
8538;SDS011;4307;53.868;11.680;2022-11-15T00:23:45;28.23;;;15.07;;
8538;SDS011;4307;53.868;11.680;2022-11-15T00:26:12;40.77;;;22.10;;
8538;SDS011;4307;53.868;11.680;2022-11-15T00:28:40;41.83;;;21.77;;
8538;SDS011;4307;53.868;11.680;2022-11-15T00:31:09;44.97;;;23.37;;
8538;SDS011;4307;53.868;11.680;2022-11-15T00:33:38;45.67;;;22.57;;
8538;SDS011;4307;53.868;11.680;2022-11-15T00:36:07;41.83;;;22.77;;
8538;SDS011;4307;53.868;11.680;2022-11-15T00:38:36;39.43;;;21.87;;
8538;SDS011;4307;53.868;11.680;2022-11-15T00:41:04;43.23;;;23.47;;
8538;SDS011;4307;53.868;11.680;2022-11-15T00:43:32;40.47;;;22.83;;
8538;SDS011;4307;53.868;11.680;2022-11-15T00:45:59;44.43;;;23.73;;
8538;SDS011;4307;53.868;11.680;2022-11-15T00:48:27;43.47;;;22.13;;
8538;SDS011;4307;53.868;11.680;2022-11-15T00:50:54;38.60;;;22.17;;
8538;SDS011;4307;53.868;11.680;2022-11-15T00:53:22;42.67;;;22.63;;
8538;SDS011;4307;53.868;11.680;2022-11-15T00:55:48;39.30;;;19.97;;
8538;SDS011;4307;53.868;11.680;2022-11-15T00:58:15;37.87;;;20.63;;
8538;SDS011;4307;53.868;11.680;2022-11-15T01:00:42;38.20;;;21.23;;
8538;SDS011;4307;53.868;11.680;2022-11-15T01:03:08;33.40;;;19.40;;
8538;SDS011;4307;53.868;11.680;2022-11-15T01:05:36;31.63;;;16.67;;
8538;SDS011;4307;53.868;11.680;2022-11-15T01:08:03;44.97;;;22.87;;
8538;SDS011;4307;53.868;11.680;2022-11-15T01:10:32;38.23;;;21.60;;
8538;SDS011;4307;53.868;11.680;2022-11-15T01:12:59;39.57;;;19.03;;
8538;SDS011;4307;53.868;11.680;2022-11-15T01:15:26;33.73;;;16.70;;
8538;SDS011;4307;53.868;11.680;2022-11-15T01:17:52;38.83;;;21.43;;
8538;SDS011;4307;53.868;11.680;2022-11-15T01:20:19;40.43;;;20.63;;
8538;SDS011;4307;53.868;11.680;2022-11-15T01:22:46;38.80;;;21.63;;
8538;SDS011;4307;53.868;11.680;2022-11-15T01:25:13;42.43;;;22.83;;
8538;SDS011;4307;53.868;11.680;2022-11-15T01:27:41;29.40;;;17.43;;
8538;SDS011;4307;53.868;11.680;2022-11-15T01:30:08;37.53;;;20.27;;
8538;SDS011;4307;53.868;11.680;2022-11-15T01:32:35;47.20;;;23.70;;
8538;SDS011;4307;53.868;11.680;2022-11-15T01:35:01;41.07;;;20.80;;
8538;SDS011;4307;53.868;11.680;2022-11-15T01:37:28;38.83;;;21.13;;
8538;SDS011;4307;53.868;11.680;2022-11-15T01:39:55;32.30;;;17.53;;
8538;SDS011;4307;53.868;11.680;2022-11-15T01:42:22;36.90;;;19.77;;
8538;SDS011;4307;53.868;11.680;2022-11-15T01:44:50;39.03;;;19.63;;
8538;SDS011;4307;53.868;11.680;2022-11-15T01:47:18;39.53;;;20.70;;
8538;SDS011;4307;53.868;11.680;2022-11-15T01:49:50;40.40;;;22.03;;
8538;SDS011;4307;53.868;11.680;2022-11-15T01:52:20;42.60;;;22.50;;
8538;SDS011;4307;53.868;11.680;2022-11-15T01:54:50;38.53;;;21.13;;
8538;SDS011;4307;53.868;11.680;2022-11-15T01:57:20;38.83;;;21.07;;
8538;SDS011;4307;53.868;11.680;2022-11-15T01:59:47;39.50;;;22.20;;
8538;SDS011;4307;53.868;11.680;2022-11-15T02:02:15;43.67;;;22.90;;
8538;SDS011;4307;53.868;11.680;2022-11-15T02:04:42;41.67;;;23.37;;
8538;SDS011;4307;53.868;11.680;2022-11-15T02:07:12;41.27;;;22.17;;
8538;SDS011;4307;53.868;11.680;2022-11-15T02:09:41;36.03;;;20.93;;
8538;SDS011;4307;53.868;11.680;2022-11-15T02:12:09;40.57;;;21.77;;
8538;SDS011;4307;53.868;11.680;2022-11-15T02:14:38;42.67;;;21.73;;
8538;SDS011;4307;53.868;11.680;2022-11-15T02:17:11;39.47;;;21.57;;
8538;SDS011;4307;53.868;11.680;2022-11-15T02:19:59;39.23;;;21.23;;
8538;SDS011;4307;53.868;11.680;2022-11-15T02:22:46;39.30;;;19.83;;
8538;SDS011;4307;53.868;11.680;2022-11-15T02:25:35;29.83;;;17.87;;
8538;SDS011;4307;53.868;11.680;2022-11-15T02:31:16;38.97;;;22.27;;
8538;SDS011;4307;53.868;11.680;2022-11-15T02:33:53;42.20;;;22.43;;
8538;SDS011;4307;53.868;11.680;2022-11-15T02:36:29;39.83;;;22.03;;
8538;SDS011;4307;53.868;11.680;2022-11-15T02:39:05;39.50;;;22.07;;
8538;SDS011;4307;53.868;11.680;2022-11-15T02:41:40;37.67;;;20.10;;
8538;SDS011;4307;53.868;11.680;2022-11-15T02:44:12;34.93;;;18.97;;
8538;SDS011;4307;53.868;11.680;2022-11-15T02:46:43;36.80;;;19.47;;
8538;SDS011;4307;53.868;11.680;2022-11-15T02:49:33;37.97;;;18.40;;
8538;SDS011;4307;53.868;11.680;2022-11-15T02:52:00;32.80;;;18.57;;
8538;SDS011;4307;53.868;11.680;2022-11-15T02:54:29;34.30;;;18.57;;
8538;SDS011;4307;53.868;11.680;2022-11-15T02:56:59;38.03;;;20.73;;
8538;SDS011;4307;53.868;11.680;2022-11-15T02:59:37;36.17;;;20.40;;
8538;SDS011;4307;53.868;11.680;2022-11-15T03:02:28;39.20;;;21.13;;
8538;SDS011;4307;53.868;11.680;2022-11-15T03:05:14;40.83;;;21.27;;
8538;SDS011;4307;53.868;11.680;2022-11-15T03:07:47;40.23;;;19.83;;
8538;SDS011;4307;53.868;11.680;2022-11-15T03:10:21;41.00;;;22.00;;
8538;SDS011;4307;53.868;11.680;2022-11-15T03:12:54;39.10;;;21.27;;
8538;SDS011;4307;53.868;11.680;2022-11-15T03:15:24;36.37;;;19.57;;
8538;SDS011;4307;53.868;11.680;2022-11-15T03:17:58;31.50;;;18.87;;
8538;SDS011;4307;53.868;11.680;2022-11-15T03:20:28;33.60;;;19.53;;
8538;SDS011;4307;53.868;11.680;2022-11-15T03:22:57;38.00;;;20.50;;
8538;SDS011;4307;53.868;11.680;2022-11-15T03:25:28;40.07;;;21.50;;
8538;SDS011;4307;53.868;11.680;2022-11-15T03:27:57;36.33;;;20.10;;
8538;SDS011;4307;53.868;11.680;2022-11-15T03:30:27;40.20;;;21.60;;
8538;SDS011;4307;53.868;11.680;2022-11-15T03:32:57;39.53;;;20.53;;
8538;SDS011;4307;53.868;11.680;2022-11-15T03:35:26;35.53;;;20.33;;
8538;SDS011;4307;53.868;11.680;2022-11-15T03:37:57;37.50;;;19.93;;
8538;SDS011;4307;53.868;11.680;2022-11-15T03:40:33;40.83;;;21.67;;
8538;SDS011;4307;53.868;11.680;2022-11-15T03:43:04;37.87;;;21.03;;
8538;SDS011;4307;53.868;11.680;2022-11-15T03:45:35;34.17;;;19.60;;
8538;SDS011;4307;53.868;11.680;2022-11-15T03:48:12;37.73;;;20.23;;
8538;SDS011;4307;53.868;11.680;2022-11-15T03:50:42;33.77;;;19.50;;
8538;SDS011;4307;53.868;11.680;2022-11-15T03:53:09;33.07;;;18.47;;
8538;SDS011;4307;53.868;11.680;2022-11-15T03:55:36;37.53;;;20.90;;
8538;SDS011;4307;53.868;11.680;2022-11-15T03:58:03;38.57;;;20.43;;
8538;SDS011;4307;53.868;11.680;2022-11-15T04:00:29;39.20;;;20.93;;
8538;SDS011;4307;53.868;11.680;2022-11-15T04:02:56;37.10;;;20.77;;
8538;SDS011;4307;53.868;11.680;2022-11-15T04:05:24;39.33;;;20.50;;
8538;SDS011;4307;53.868;11.680;2022-11-15T04:07:51;37.17;;;21.37;;
8538;SDS011;4307;53.868;11.680;2022-11-15T04:10:18;37.53;;;20.47;;
8538;SDS011;4307;53.868;11.680;2022-11-15T04:12:45;34.97;;;20.07;;
8538;SDS011;4307;53.868;11.680;2022-11-15T04:15:13;35.37;;;20.57;;
8538;SDS011;4307;53.868;11.680;2022-11-15T04:17:44;36.57;;;19.33;;
8538;SDS011;4307;53.868;11.680;2022-11-15T04:20:13;44.13;;;20.73;;
8538;SDS011;4307;53.868;11.680;2022-11-15T04:23:03;37.30;;;20.37;;
8538;SDS011;4307;53.868;11.680;2022-11-15T04:25:51;38.53;;;20.17;;
8538;SDS011;4307;53.868;11.680;2022-11-15T04:28:19;37.53;;;19.77;;
8538;SDS011;4307;53.868;11.680;2022-11-15T04:30:46;38.17;;;20.73;;
8538;SDS011;4307;53.868;11.680;2022-11-15T04:33:13;38.10;;;20.83;;
8538;SDS011;4307;53.868;11.680;2022-11-15T04:35:40;38.07;;;20.70;;
8538;SDS011;4307;53.868;11.680;2022-11-15T04:38:09;36.80;;;19.40;;
8538;SDS011;4307;53.868;11.680;2022-11-15T04:40:36;34.03;;;19.23;;
8538;SDS011;4307;53.868;11.680;2022-11-15T04:43:03;40.47;;;19.93;;
8538;SDS011;4307;53.868;11.680;2022-11-15T04:45:30;36.03;;;20.17;;
8538;SDS011;4307;53.868;11.680;2022-11-15T04:47:57;40.40;;;20.77;;
8538;SDS011;4307;53.868;11.680;2022-11-15T04:50:23;36.37;;;20.13;;
8538;SDS011;4307;53.868;11.680;2022-11-15T04:52:50;39.37;;;21.70;;
8538;SDS011;4307;53.868;11.680;2022-11-15T04:55:20;35.80;;;21.10;;
8538;SDS011;4307;53.868;11.680;2022-11-15T04:57:46;43.13;;;21.57;;
8538;SDS011;4307;53.868;11.680;2022-11-15T05:00:14;39.47;;;21.27;;
8538;SDS011;4307;53.868;11.680;2022-11-15T05:02:42;34.67;;;20.93;;
8538;SDS011;4307;53.868;11.680;2022-11-15T05:05:26;36.43;;;20.87;;
8538;SDS011;4307;53.868;11.680;2022-11-15T05:07:53;42.23;;;21.80;;
8538;SDS011;4307;53.868;11.680;2022-11-15T05:10:21;36.80;;;20.03;;
8538;SDS011;4307;53.868;11.680;2022-11-15T05:12:47;34.80;;;19.37;;
8538;SDS011;4307;53.868;11.680;2022-11-15T05:15:14;31.00;;;18.93;;
8538;SDS011;4307;53.868;11.680;2022-11-15T05:17:41;32.70;;;18.93;;
8538;SDS011;4307;53.868;11.680;2022-11-15T05:20:08;34.03;;;18.97;;
8538;SDS011;4307;53.868;11.680;2022-11-15T05:22:35;29.43;;;18.40;;
8538;SDS011;4307;53.868;11.680;2022-11-15T05:25:02;28.67;;;17.83;;
8538;SDS011;4307;53.868;11.680;2022-11-15T05:27:31;28.30;;;16.83;;
8538;SDS011;4307;53.868;11.680;2022-11-15T05:29:58;29.80;;;17.93;;
8538;SDS011;4307;53.868;11.680;2022-11-15T05:32:24;29.77;;;17.53;;
8538;SDS011;4307;53.868;11.680;2022-11-15T05:34:51;33.00;;;19.60;;
8538;SDS011;4307;53.868;11.680;2022-11-15T05:37:18;28.87;;;17.43;;
8538;SDS011;4307;53.868;11.680;2022-11-15T05:39:44;29.77;;;18.40;;
8538;SDS011;4307;53.868;11.680;2022-11-15T05:42:11;31.50;;;18.47;;
8538;SDS011;4307;53.868;11.680;2022-11-15T05:44:41;30.33;;;18.17;;
8538;SDS011;4307;53.868;11.680;2022-11-15T05:47:13;28.27;;;16.87;;
8538;SDS011;4307;53.868;11.680;2022-11-15T05:49:43;27.30;;;16.77;;
8538;SDS011;4307;53.868;11.680;2022-11-15T05:52:11;29.10;;;17.37;;
8538;SDS011;4307;53.868;11.680;2022-11-15T05:54:42;28.30;;;16.63;;
8538;SDS011;4307;53.868;11.680;2022-11-15T05:57:10;26.20;;;15.83;;
8538;SDS011;4307;53.868;11.680;2022-11-15T05:59:36;24.97;;;15.63;;
8538;SDS011;4307;53.868;11.680;2022-11-15T06:02:06;31.80;;;17.90;;
8538;SDS011;4307;53.868;11.680;2022-11-15T06:04:33;28.00;;;18.13;;
8538;SDS011;4307;53.868;11.680;2022-11-15T06:07:00;32.80;;;19.07;;
8538;SDS011;4307;53.868;11.680;2022-11-15T06:09:26;30.57;;;18.53;;
8538;SDS011;4307;53.868;11.680;2022-11-15T06:11:53;33.43;;;19.27;;
8538;SDS011;4307;53.868;11.680;2022-11-15T06:14:19;33.57;;;19.33;;
8538;SDS011;4307;53.868;11.680;2022-11-15T06:16:46;33.87;;;19.57;;
8538;SDS011;4307;53.868;11.680;2022-11-15T06:19:14;31.20;;;18.83;;
8538;SDS011;4307;53.868;11.680;2022-11-15T06:21:41;32.17;;;18.43;;
8538;SDS011;4307;53.868;11.680;2022-11-15T06:24:08;31.27;;;18.50;;
8538;SDS011;4307;53.868;11.680;2022-11-15T06:26:35;35.23;;;19.37;;
8538;SDS011;4307;53.868;11.680;2022-11-15T06:29:02;44.10;;;20.67;;
8538;SDS011;4307;53.868;11.680;2022-11-15T06:31:29;39.63;;;19.90;;
8538;SDS011;4307;53.868;11.680;2022-11-15T06:33:55;46.37;;;21.53;;
8538;SDS011;4307;53.868;11.680;2022-11-15T06:36:23;38.23;;;20.33;;
8538;SDS011;4307;53.868;11.680;2022-11-15T06:38:50;40.03;;;21.80;;
8538;SDS011;4307;53.868;11.680;2022-11-15T06:41:17;41.30;;;20.63;;
8538;SDS011;4307;53.868;11.680;2022-11-15T06:43:45;34.67;;;19.97;;
8538;SDS011;4307;53.868;11.680;2022-11-15T06:46:12;36.43;;;19.83;;
8538;SDS011;4307;53.868;11.680;2022-11-15T06:48:39;31.03;;;18.47;;
8538;SDS011;4307;53.868;11.680;2022-11-15T06:51:05;33.60;;;18.87;;
8538;SDS011;4307;53.868;11.680;2022-11-15T06:53:34;30.60;;;18.30;;
8538;SDS011;4307;53.868;11.680;2022-11-15T06:56:01;32.87;;;18.57;;
8538;SDS011;4307;53.868;11.680;2022-11-15T06:58:29;34.87;;;19.20;;
8538;SDS011;4307;53.868;11.680;2022-11-15T07:00:58;32.90;;;18.83;;
8538;SDS011;4307;53.868;11.680;2022-11-15T07:03:25;32.53;;;19.37;;
8538;SDS011;4307;53.868;11.680;2022-11-15T07:05:52;36.77;;;19.57;;
8538;SDS011;4307;53.868;11.680;2022-11-15T07:08:20;36.30;;;19.00;;
8538;SDS011;4307;53.868;11.680;2022-11-15T07:10:48;37.97;;;20.03;;
8538;SDS011;4307;53.868;11.680;2022-11-15T07:13:14;33.80;;;19.10;;
8538;SDS011;4307;53.868;11.680;2022-11-15T07:15:41;34.80;;;20.00;;
8538;SDS011;4307;53.868;11.680;2022-11-15T07:18:08;35.97;;;19.90;;
8538;SDS011;4307;53.868;11.680;2022-11-15T07:20:34;35.80;;;19.80;;
8538;SDS011;4307;53.868;11.680;2022-11-15T07:23:02;34.40;;;19.13;;
8538;SDS011;4307;53.868;11.680;2022-11-15T07:25:29;34.07;;;18.47;;
8538;SDS011;4307;53.868;11.680;2022-11-15T07:27:58;37.13;;;19.83;;
8538;SDS011;4307;53.868;11.680;2022-11-15T07:30:25;36.97;;;19.23;;
8538;SDS011;4307;53.868;11.680;2022-11-15T07:32:53;32.33;;;19.83;;
8538;SDS011;4307;53.868;11.680;2022-11-15T07:35:20;34.70;;;20.13;;
8538;SDS011;4307;53.868;11.680;2022-11-15T07:37:52;38.93;;;19.77;;
8538;SDS011;4307;53.868;11.680;2022-11-15T07:40:20;34.83;;;19.40;;
8538;SDS011;4307;53.868;11.680;2022-11-15T07:42:46;34.33;;;20.17;;
8538;SDS011;4307;53.868;11.680;2022-11-15T07:45:22;32.90;;;17.90;;
8538;SDS011;4307;53.868;11.680;2022-11-15T07:47:52;32.63;;;18.03;;
8538;SDS011;4307;53.868;11.680;2022-11-15T07:50:21;30.30;;;18.77;;
8538;SDS011;4307;53.868;11.680;2022-11-15T07:52:52;29.70;;;18.43;;
8538;SDS011;4307;53.868;11.680;2022-11-15T07:55:19;32.67;;;18.70;;
8538;SDS011;4307;53.868;11.680;2022-11-15T07:57:46;32.40;;;17.83;;
8538;SDS011;4307;53.868;11.680;2022-11-15T08:00:13;26.97;;;16.80;;
8538;SDS011;4307;53.868;11.680;2022-11-15T08:02:42;31.90;;;17.03;;
8538;SDS011;4307;53.868;11.680;2022-11-15T08:05:09;28.93;;;17.60;;
8538;SDS011;4307;53.868;11.680;2022-11-15T08:07:35;34.20;;;17.57;;
8538;SDS011;4307;53.868;11.680;2022-11-15T08:10:03;33.23;;;17.57;;
8538;SDS011;4307;53.868;11.680;2022-11-15T08:12:30;29.23;;;17.60;;
8538;SDS011;4307;53.868;11.680;2022-11-15T08:14:57;28.57;;;17.97;;
8538;SDS011;4307;53.868;11.680;2022-11-15T08:17:24;26.40;;;15.67;;
8538;SDS011;4307;53.868;11.680;2022-11-15T08:19:52;27.60;;;16.33;;
8538;SDS011;4307;53.868;11.680;2022-11-15T08:22:19;29.80;;;17.33;;
8538;SDS011;4307;53.868;11.680;2022-11-15T08:24:46;30.23;;;17.40;;
8538;SDS011;4307;53.868;11.680;2022-11-15T08:27:12;27.53;;;16.50;;
8538;SDS011;4307;53.868;11.680;2022-11-15T08:29:41;29.53;;;17.13;;
8538;SDS011;4307;53.868;11.680;2022-11-15T08:32:08;25.90;;;16.60;;
8538;SDS011;4307;53.868;11.680;2022-11-15T08:34:35;30.73;;;17.23;;
8538;SDS011;4307;53.868;11.680;2022-11-15T08:37:04;25.07;;;16.00;;
8538;SDS011;4307;53.868;11.680;2022-11-15T08:39:30;26.03;;;16.83;;
8538;SDS011;4307;53.868;11.680;2022-11-15T08:41:57;31.47;;;17.70;;
8538;SDS011;4307;53.868;11.680;2022-11-15T08:44:24;29.13;;;16.83;;
8538;SDS011;4307;53.868;11.680;2022-11-15T08:46:51;26.10;;;16.13;;
8538;SDS011;4307;53.868;11.680;2022-11-15T08:49:17;28.60;;;16.70;;
8538;SDS011;4307;53.868;11.680;2022-11-15T08:51:44;27.63;;;17.00;;
8538;SDS011;4307;53.868;11.680;2022-11-15T08:54:12;24.93;;;15.17;;
8538;SDS011;4307;53.868;11.680;2022-11-15T08:56:39;28.27;;;16.80;;
8538;SDS011;4307;53.868;11.680;2022-11-15T08:59:06;25.00;;;15.73;;
8538;SDS011;4307;53.868;11.680;2022-11-15T09:01:32;29.30;;;16.53;;
8538;SDS011;4307;53.868;11.680;2022-11-15T09:03:59;27.93;;;14.87;;
8538;SDS011;4307;53.868;11.680;2022-11-15T09:06:26;24.67;;;15.20;;
8538;SDS011;4307;53.868;11.680;2022-11-15T09:08:52;28.17;;;16.33;;
8538;SDS011;4307;53.868;11.680;2022-11-15T09:11:20;25.40;;;16.13;;
8538;SDS011;4307;53.868;11.680;2022-11-15T09:13:48;28.40;;;17.57;;
8538;SDS011;4307;53.868;11.680;2022-11-15T09:16:15;26.87;;;16.13;;
8538;SDS011;4307;53.868;11.680;2022-11-15T09:18:42;25.13;;;15.70;;
8538;SDS011;4307;53.868;11.680;2022-11-15T09:21:09;26.47;;;16.77;;
8538;SDS011;4307;53.868;11.680;2022-11-15T09:23:36;29.10;;;17.17;;
8538;SDS011;4307;53.868;11.680;2022-11-15T09:26:03;25.37;;;14.50;;
8538;SDS011;4307;53.868;11.680;2022-11-15T09:28:32;22.37;;;14.57;;
8538;SDS011;4307;53.868;11.680;2022-11-15T09:30:59;24.97;;;15.53;;
8538;SDS011;4307;53.868;11.680;2022-11-15T09:33:27;22.40;;;14.43;;
8538;SDS011;4307;53.868;11.680;2022-11-15T09:35:57;22.93;;;15.30;;
8538;SDS011;4307;53.868;11.680;2022-11-15T09:38:26;25.17;;;16.87;;
8538;SDS011;4307;53.868;11.680;2022-11-15T09:40:56;24.90;;;14.60;;
8538;SDS011;4307;53.868;11.680;2022-11-15T09:43:42;24.87;;;15.17;;
8538;SDS011;4307;53.868;11.680;2022-11-15T09:46:17;26.00;;;15.20;;
8538;SDS011;4307;53.868;11.680;2022-11-15T09:48:52;24.97;;;14.93;;
8538;SDS011;4307;53.868;11.680;2022-11-15T09:51:26;23.80;;;15.00;;
8538;SDS011;4307;53.868;11.680;2022-11-15T09:53:57;24.47;;;15.83;;
8538;SDS011;4307;53.868;11.680;2022-11-15T09:56:29;23.73;;;14.80;;
8538;SDS011;4307;53.868;11.680;2022-11-15T09:59:02;23.33;;;13.63;;
8538;SDS011;4307;53.868;11.680;2022-11-15T10:01:45;25.83;;;15.23;;
8538;SDS011;4307;53.868;11.680;2022-11-15T10:04:19;21.97;;;13.87;;
8538;SDS011;4307;53.868;11.680;2022-11-15T10:06:47;22.67;;;13.93;;
8538;SDS011;4307;53.868;11.680;2022-11-15T10:09:21;22.10;;;13.53;;
8538;SDS011;4307;53.868;11.680;2022-11-15T10:11:52;21.93;;;13.77;;
8538;SDS011;4307;53.868;11.680;2022-11-15T10:14:20;19.07;;;13.23;;
8538;SDS011;4307;53.868;11.680;2022-11-15T10:16:53;20.83;;;13.17;;
8538;SDS011;4307;53.868;11.680;2022-11-15T10:19:50;17.67;;;12.07;;
8538;SDS011;4307;53.868;11.680;2022-11-15T10:22:25;19.23;;;13.23;;
8538;SDS011;4307;53.868;11.680;2022-11-15T10:25:00;22.07;;;12.70;;
8538;SDS011;4307;53.868;11.680;2022-11-15T10:27:42;17.57;;;11.37;;
8538;SDS011;4307;53.868;11.680;2022-11-15T10:30:13;18.60;;;11.60;;
8538;SDS011;4307;53.868;11.680;2022-11-15T10:32:43;18.13;;;11.47;;
8538;SDS011;4307;53.868;11.680;2022-11-15T10:35:18;18.40;;;11.50;;
8538;SDS011;4307;53.868;11.680;2022-11-15T10:37:46;17.80;;;11.93;;
8538;SDS011;4307;53.868;11.680;2022-11-15T10:40:18;21.13;;;12.43;;
8538;SDS011;4307;53.868;11.680;2022-11-15T10:42:47;17.13;;;12.03;;
8538;SDS011;4307;53.868;11.680;2022-11-15T10:45:26;18.67;;;11.27;;
8538;SDS011;4307;53.868;11.680;2022-11-15T10:47:57;14.53;;;10.77;;
8538;SDS011;4307;53.868;11.680;2022-11-15T10:50:51;16.90;;;11.60;;
8538;SDS011;4307;53.868;11.680;2022-11-15T10:53:21;15.03;;;10.73;;
8538;SDS011;4307;53.868;11.680;2022-11-15T10:55:58;15.57;;;11.10;;
8538;SDS011;4307;53.868;11.680;2022-11-15T10:58:32;16.00;;;11.97;;
8538;SDS011;4307;53.868;11.680;2022-11-15T11:01:13;18.20;;;11.93;;
8538;SDS011;4307;53.868;11.680;2022-11-15T11:03:42;17.93;;;13.13;;
8538;SDS011;4307;53.868;11.680;2022-11-15T11:06:11;21.73;;;12.07;;
8538;SDS011;4307;53.868;11.680;2022-11-15T11:08:39;15.67;;;11.53;;
8538;SDS011;4307;53.868;11.680;2022-11-15T11:11:06;17.70;;;11.27;;
8538;SDS011;4307;53.868;11.680;2022-11-15T11:13:34;17.00;;;12.07;;
8538;SDS011;4307;53.868;11.680;2022-11-15T11:16:14;19.67;;;12.73;;
8538;SDS011;4307;53.868;11.680;2022-11-15T11:18:49;17.17;;;12.07;;
8538;SDS011;4307;53.868;11.680;2022-11-15T11:21:25;16.50;;;12.43;;
8538;SDS011;4307;53.868;11.680;2022-11-15T11:23:57;18.40;;;12.07;;
8538;SDS011;4307;53.868;11.680;2022-11-15T11:26:32;18.10;;;12.50;;
8538;SDS011;4307;53.868;11.680;2022-11-15T11:29:08;15.77;;;10.73;;
8538;SDS011;4307;53.868;11.680;2022-11-15T11:31:49;19.93;;;12.17;;
8538;SDS011;4307;53.868;11.680;2022-11-15T11:34:29;17.07;;;11.93;;
8538;SDS011;4307;53.868;11.680;2022-11-15T11:37:09;17.70;;;12.30;;
8538;SDS011;4307;53.868;11.680;2022-11-15T11:39:42;18.07;;;11.93;;
8538;SDS011;4307;53.868;11.680;2022-11-15T11:42:17;15.73;;;11.57;;
8538;SDS011;4307;53.868;11.680;2022-11-15T11:44:55;15.97;;;11.27;;
8538;SDS011;4307;53.868;11.680;2022-11-15T11:47:30;20.77;;;12.57;;
8538;SDS011;4307;53.868;11.680;2022-11-15T11:49:59;19.03;;;12.33;;
8538;SDS011;4307;53.868;11.680;2022-11-15T11:52:31;18.70;;;11.47;;
8538;SDS011;4307;53.868;11.680;2022-11-15T11:55:03;14.73;;;11.27;;
8538;SDS011;4307;53.868;11.680;2022-11-15T11:57:39;18.20;;;11.90;;
8538;SDS011;4307;53.868;11.680;2022-11-15T12:00:14;14.20;;;10.63;;
8538;SDS011;4307;53.868;11.680;2022-11-15T12:02:47;16.90;;;11.70;;
8538;SDS011;4307;53.868;11.680;2022-11-15T12:05:20;15.47;;;11.37;;
8538;SDS011;4307;53.868;11.680;2022-11-15T12:07:53;15.87;;;11.57;;
8538;SDS011;4307;53.868;11.680;2022-11-15T12:10:28;14.90;;;11.00;;
8538;SDS011;4307;53.868;11.680;2022-11-15T12:12:58;16.07;;;11.67;;
8538;SDS011;4307;53.868;11.680;2022-11-15T12:15:30;14.50;;;11.40;;
8538;SDS011;4307;53.868;11.680;2022-11-15T12:18:00;14.23;;;10.03;;
8538;SDS011;4307;53.868;11.680;2022-11-15T12:20:29;15.63;;;11.67;;
8538;SDS011;4307;53.868;11.680;2022-11-15T12:22:59;14.70;;;10.63;;
8538;SDS011;4307;53.868;11.680;2022-11-15T12:25:31;13.07;;;9.90;;
8538;SDS011;4307;53.868;11.680;2022-11-15T12:28:06;14.07;;;9.90;;
8538;SDS011;4307;53.868;11.680;2022-11-15T12:30:42;18.10;;;11.30;;
8538;SDS011;4307;53.868;11.680;2022-11-15T12:36:02;16.33;;;11.70;;
8538;SDS011;4307;53.868;11.680;2022-11-15T12:41:19;15.87;;;11.40;;
8538;SDS011;4307;53.868;11.680;2022-11-15T12:43:47;13.90;;;11.53;;
8538;SDS011;4307;53.868;11.680;2022-11-15T12:46:19;14.67;;;11.67;;
8538;SDS011;4307;53.868;11.680;2022-11-15T12:48:51;14.30;;;11.47;;
8538;SDS011;4307;53.868;11.680;2022-11-15T12:51:23;16.10;;;11.17;;
8538;SDS011;4307;53.868;11.680;2022-11-15T12:57:49;15.00;;;11.30;;
8538;SDS011;4307;53.868;11.680;2022-11-15T13:03:20;19.17;;;12.83;;
8538;SDS011;4307;53.868;11.680;2022-11-15T13:06:07;14.53;;;11.07;;
8538;SDS011;4307;53.868;11.680;2022-11-15T13:08:40;16.87;;;12.33;;
8538;SDS011;4307;53.868;11.680;2022-11-15T13:17:20;17.83;;;12.70;;
8538;SDS011;4307;53.868;11.680;2022-11-15T13:19:53;20.47;;;14.17;;
8538;SDS011;4307;53.868;11.680;2022-11-15T13:22:26;21.47;;;13.97;;
8538;SDS011;4307;53.868;11.680;2022-11-15T13:25:18;19.87;;;14.77;;
8538;SDS011;4307;53.868;11.680;2022-11-15T13:28:01;22.73;;;15.43;;
8538;SDS011;4307;53.868;11.680;2022-11-15T13:30:30;20.70;;;14.77;;
8538;SDS011;4307;53.868;11.680;2022-11-15T13:32:57;19.67;;;14.43;;
8538;SDS011;4307;53.868;11.680;2022-11-15T13:35:32;19.13;;;13.93;;
8538;SDS011;4307;53.868;11.680;2022-11-15T13:38:04;20.60;;;13.93;;
8538;SDS011;4307;53.868;11.680;2022-11-15T13:40:34;19.90;;;14.10;;
8538;SDS011;4307;53.868;11.680;2022-11-15T13:43:13;22.60;;;14.70;;
8538;SDS011;4307;53.868;11.680;2022-11-15T13:45:43;19.33;;;14.23;;
8538;SDS011;4307;53.868;11.680;2022-11-15T13:48:09;16.87;;;13.00;;
8538;SDS011;4307;53.868;11.680;2022-11-15T13:50:36;19.07;;;14.97;;
8538;SDS011;4307;53.868;11.680;2022-11-15T13:53:06;20.57;;;14.87;;
8538;SDS011;4307;53.868;11.680;2022-11-15T13:55:35;19.37;;;13.70;;
8538;SDS011;4307;53.868;11.680;2022-11-15T13:58:03;21.17;;;14.70;;
8538;SDS011;4307;53.868;11.680;2022-11-15T14:00:33;22.03;;;14.13;;
8538;SDS011;4307;53.868;11.680;2022-11-15T14:03:06;20.17;;;13.33;;
8538;SDS011;4307;53.868;11.680;2022-11-15T14:05:39;25.03;;;14.83;;
8538;SDS011;4307;53.868;11.680;2022-11-15T14:08:20;22.83;;;14.93;;
8538;SDS011;4307;53.868;11.680;2022-11-15T14:10:49;22.87;;;15.10;;
8538;SDS011;4307;53.868;11.680;2022-11-15T14:13:32;20.67;;;13.80;;
8538;SDS011;4307;53.868;11.680;2022-11-15T14:16:12;24.83;;;15.23;;
8538;SDS011;4307;53.868;11.680;2022-11-15T14:18:44;24.27;;;15.20;;
8538;SDS011;4307;53.868;11.680;2022-11-15T14:21:12;22.73;;;15.47;;
8538;SDS011;4307;53.868;11.680;2022-11-15T14:23:40;25.10;;;16.60;;
8538;SDS011;4307;53.868;11.680;2022-11-15T14:26:11;29.37;;;15.37;;
8538;SDS011;4307;53.868;11.680;2022-11-15T14:28:52;23.80;;;15.07;;
8538;SDS011;4307;53.868;11.680;2022-11-15T14:31:19;25.60;;;16.43;;
8538;SDS011;4307;53.868;11.680;2022-11-15T14:33:47;26.47;;;15.27;;
8538;SDS011;4307;53.868;11.680;2022-11-15T14:36:14;24.43;;;15.03;;
8538;SDS011;4307;53.868;11.680;2022-11-15T14:38:43;23.43;;;16.43;;
8538;SDS011;4307;53.868;11.680;2022-11-15T14:41:12;24.93;;;15.83;;
8538;SDS011;4307;53.868;11.680;2022-11-15T14:43:47;23.43;;;15.67;;
8538;SDS011;4307;53.868;11.680;2022-11-15T14:46:15;24.93;;;16.70;;
8538;SDS011;4307;53.868;11.680;2022-11-15T14:48:41;24.00;;;15.40;;
8538;SDS011;4307;53.868;11.680;2022-11-15T14:51:11;24.67;;;15.67;;
8538;SDS011;4307;53.868;11.680;2022-11-15T14:53:40;21.73;;;13.40;;
8538;SDS011;4307;53.868;11.680;2022-11-15T14:56:08;22.77;;;14.27;;
8538;SDS011;4307;53.868;11.680;2022-11-15T14:58:35;25.67;;;16.50;;
8538;SDS011;4307;53.868;11.680;2022-11-15T15:01:02;23.33;;;15.37;;
8538;SDS011;4307;53.868;11.680;2022-11-15T15:03:34;29.27;;;18.90;;
8538;SDS011;4307;53.868;11.680;2022-11-15T15:06:00;24.77;;;15.77;;
8538;SDS011;4307;53.868;11.680;2022-11-15T15:08:27;25.33;;;16.50;;
8538;SDS011;4307;53.868;11.680;2022-11-15T15:10:54;28.37;;;17.40;;
8538;SDS011;4307;53.868;11.680;2022-11-15T15:13:22;22.90;;;16.53;;
8538;SDS011;4307;53.868;11.680;2022-11-15T15:15:50;26.00;;;16.80;;